Time;durP1;ratioP1;P1;durP2;ratioP2;P2;SDS_P1;SDS_P2;PMS_P1;PMS_P2;Temp;Humidity;BMP_temperature;BMP_pressure;BME280_temperature;BME280_humidity;BME280_pressure;Samples;Min_cycle;Max_cycle;Signal;HPM_P1;HPM_P2
2021/06/01 00:01:59;;;;;;;0.90;0.90;;;;;;;-144.31;100.00;75665.47;5007152;28;20112;-75
2021/06/01 00:04:26;;;;;;;1.10;1.10;;;;;;;-144.31;100.00;75671.47;5011041;28;20196;-75
2021/06/01 00:06:51;;;;;;;1.00;1.00;;;;;;;-144.31;100.00;75677.47;5008690;28;20128;-75
2021/06/01 00:09:20;;;;;;;1.08;1.08;;;;;;;-144.31;100.00;75689.44;5007223;28;20038;-75
2021/06/01 00:11:49;;;;;;;0.90;0.90;;;;;;;-144.31;100.00;75697.44;5000636;28;20037;-75
2021/06/01 00:14:16;;;;;;;0.90;0.90;;;;;;;-144.31;100.00;75691.44;5003795;28;20508;-74
2021/06/01 00:16:41;;;;;;;1.10;1.10;;;;;;;-144.31;100.00;75709.44;5007375;28;20041;-75
2021/06/01 00:19:08;;;;;;;0.90;0.90;;;;;;;-144.31;100.00;75713.41;5005723;28;20029;-74
2021/06/01 00:21:35;;;;;;;0.97;0.97;;;;;;;-144.31;100.00;75721.41;5003960;28;20042;-75
2021/06/01 00:24:03;;;;;;;0.80;0.80;;;;;;;-144.31;100.00;75735.41;5005924;28;20523;-75
2021/06/01 00:26:28;;;;;;;;;;;;;;;-144.31;100.00;75733.41;5008238;28;20080;-75
2021/06/01 00:28:53;;;;;;;1.00;1.00;;;;;;;-144.31;100.00;75735.41;5004839;28;20418;-75
2021/06/01 00:31:19;;;;;;;1.20;1.17;;;;;;;-144.31;100.00;75739.38;4999421;28;20033;-75
2021/06/01 00:33:48;;;;;;;1.65;1.45;;;;;;;-144.31;100.00;75749.38;5004274;28;20067;-75
2021/06/01 00:36:13;;;;;;;1.52;1.42;;;;;;;-144.31;100.00;75763.34;5022601;28;20046;-74
2021/06/01 00:38:39;;;;;;;1.40;1.30;;;;;;;-144.31;100.00;75761.34;5004671;28;20088;-74
2021/06/01 00:41:05;;;;;;;1.25;1.20;;;;;;;-144.31;100.00;75761.34;5004446;28;20057;-75
2021/06/01 00:43:34;;;;;;;1.02;1.02;;;;;;;-144.31;100.00;75751.38;5002053;28;20490;-75
2021/06/01 00:46:00;;;;;;;1.00;1.00;;;;;;;-144.31;100.00;75765.34;5007244;28;20547;-75
2021/06/01 00:48:28;;;;;;;1.10;1.00;;;;;;;-144.31;100.00;75771.34;5002770;28;20117;-75
2021/06/01 00:50:53;;;;;;;1.02;1.02;;;;;;;-144.31;100.00;75773.34;5004857;28;20487;-75
2021/06/01 00:53:21;;;;;;;1.10;1.10;;;;;;;-144.31;100.00;75779.34;5004986;28;20104;-75
2021/06/01 00:55:47;;;;;;;1.20;1.13;;;;;;;-144.31;100.00;75781.34;5004564;28;20483;-74
2021/06/01 00:58:12;;;;;;;1.50;1.40;;;;;;;-144.31;100.00;75793.31;5006778;28;20495;-75
2021/06/01 01:03:08;;;;;;;1.20;1.20;;;;;;;-144.31;100.00;75797.31;5002912;28;20088;-75
2021/06/01 01:05:37;;;;;;;1.10;1.10;;;;;;;-144.31;100.00;75817.28;5006829;28;20515;-75
2021/06/01 01:10:57;;;;;;;1.13;1.13;;;;;;;-144.31;100.00;75823.28;5007773;28;20048;-74
2021/06/01 01:13:23;;;;;;;1.00;1.00;;;;;;;-144.31;100.00;75823.28;5025819;28;20042;-74
2021/06/01 01:15:51;;;;;;;1.00;1.00;;;;;;;-144.31;100.00;75829.28;5023585;28;20499;-75
2021/06/01 01:18:21;;;;;;;;;;;;;;;-144.31;100.00;75837.25;5011128;28;20112;-74
2021/06/01 01:21:05;;;;;;;1.48;1.38;;;;;;;-144.31;100.00;75843.25;5005846;28;19914;-74
2021/06/01 01:23:32;;;;;;;1.45;1.35;;;;;;;-144.31;100.00;75849.25;5011797;28;20030;-74
2021/06/01 01:26:25;;;;;;;1.10;1.10;;;;;;;-144.31;100.00;75845.25;5012192;28;20033;-75
2021/06/01 01:29:01;;;;;;;1.10;1.10;;;;;;;-144.31;100.00;75839.25;5009304;28;20495;-74
2021/06/01 01:31:41;;;;;;;1.10;1.10;;;;;;;-144.31;100.00;75841.25;5008985;28;20120;-74
2021/06/01 01:34:11;;;;;;;1.00;1.00;;;;;;;-144.31;100.00;75841.25;5012953;28;20032;-74
2021/06/01 01:36:37;;;;;;;1.07;1.07;;;;;;;-144.31;100.00;75841.25;5013193;28;20412;-74
2021/06/01 01:39:05;;;;;;;0.97;0.97;;;;;;;-144.31;100.00;75841.25;5022087;28;20342;-75
2021/06/01 01:41:35;;;;;;;1.00;1.00;;;;;;;-144.31;100.00;75829.28;5026272;28;20034;-75
2021/06/01 01:44:05;;;;;;;1.00;1.00;;;;;;;-144.31;100.00;75845.25;5010428;28;20466;-74
2021/06/01 01:49:04;;;;;;;1.00;1.00;;;;;;;-144.31;100.00;75853.25;5013648;28;20044;-74
2021/06/01 01:51:36;;;;;;;0.90;0.90;;;;;;;-144.31;100.00;75853.25;5010744;28;20056;-74
2021/06/01 01:54:17;;;;;;;1.02;1.02;;;;;;;-144.31;100.00;75853.25;5011558;28;20034;-74
2021/06/01 01:56:47;;;;;;;0.90;0.90;;;;;;;-144.31;100.00;75845.25;5007134;28;20362;-74
2021/06/01 01:59:24;;;;;;;1.10;1.10;;;;;;;-144.31;100.00;75849.25;5009551;28;20168;-74
2021/06/01 02:01:53;;;;;;;1.02;1.02;;;;;;;-144.31;100.00;75839.25;5010065;28;20453;-74
2021/06/01 02:04:24;;;;;;;1.00;1.00;;;;;;;-144.31;100.00;75851.25;5008202;28;20041;-74
2021/06/01 02:06:51;;;;;;;1.00;1.00;;;;;;;-144.31;100.00;75865.22;5009799;28;20041;-74
2021/06/01 02:09:20;;;;;;;1.00;1.00;;;;;;;-144.31;100.00;75873.22;5013870;28;20041;-74
2021/06/01 02:11:45;;;;;;;0.95;0.95;;;;;;;-144.31;100.00;75879.22;5013572;28;20068;-74
2021/06/01 02:14:13;;;;;;;0.95;0.95;;;;;;;-144.31;100.00;75893.19;5006593;28;20066;-74
2021/06/01 02:16:41;;;;;;;1.00;1.00;;;;;;;-144.31;100.00;75895.19;5020220;28;20041;-74
2021/06/01 02:19:07;;;;;;;;;;;;;;;-144.31;100.00;75895.19;5010061;28;20026;-74
2021/06/01 02:24:29;;;;;;;1.00;1.00;;;;;;;-144.31;100.00;75903.19;5010731;28;20459;-74
2021/06/01 02:27:12;;;;;;;1.50;1.40;;;;;;;-144.31;100.00;75915.16;5009635;28;20034;-75
2021/06/01 02:29:38;;;;;;;1.40;1.30;;;;;;;-144.31;100.00;75925.16;4992358;28;20041;-74
2021/06/01 02:32:05;;;;;;;1.38;1.27;;;;;;;-144.31;100.00;75927.16;5010281;28;20038;-74
2021/06/01 02:34:38;;;;;;;1.15;1.15;;;;;;;-144.31;100.00;75923.16;5009032;28;20112;-74
2021/06/01 02:37:04;;;;;;;1.30;1.20;;;;;;;-144.31;100.00;75923.16;5021095;28;20511;-74
2021/06/01 02:39:30;;;;;;;1.13;1.13;;;;;;;-144.31;100.00;75929.16;5007240;28;20038;-74
2021/06/01 02:41:57;;;;;;;1.30;1.20;;;;;;;-144.31;100.00;75941.13;5003825;28;20042;-74
2021/06/01 02:44:23;;;;;;;1.20;1.20;;;;;;;-144.31;100.00;75945.13;5022157;28;20041;-74
2021/06/01 02:46:49;;;;;;;1.20;1.20;;;;;;;-144.31;100.00;75945.13;5010491;28;20064;-74
2021/06/01 02:49:17;;;;;;;1.10;1.10;;;;;;;-144.31;100.00;75943.13;5015518;28;20057;-74
2021/06/01 02:51:43;;;;;;;1.00;1.00;;;;;;;-144.31;100.00;75951.13;5024661;28;20046;-74
2021/06/01 02:54:11;;;;;;;1.20;1.20;;;;;;;-144.31;100.00;75943.13;5007829;28;20033;-74
2021/06/01 02:56:38;;;;;;;1.10;1.10;;;;;;;-144.31;100.00;75949.13;4999405;28;20062;-74
2021/06/01 02:59:07;;;;;;;1.02;1.02;;;;;;;-144.31;100.00;75951.13;5005035;28;20034;-74
2021/06/01 03:01:33;;;;;;;1.00;1.00;;;;;;;-144.31;100.00;75949.13;5021611;28;20045;-74
2021/06/01 03:03:58;;;;;;;1.00;1.00;;;;;;;-144.31;100.00;75951.13;5001067;28;20038;-74
2021/06/01 03:06:25;;;;;;;1.00;1.00;;;;;;;-144.31;100.00;75945.13;5008132;28;20026;-74
2021/06/01 03:08:52;;;;;;;1.02;1.02;;;;;;;-144.31;100.00;75949.13;5016573;28;20569;-74
2021/06/01 03:11:22;;;;;;;1.10;1.10;;;;;;;-144.31;100.00;75957.13;5005389;28;20033;-75
2021/06/01 03:13:49;;;;;;;0.90;0.90;;;;;;;-144.31;100.00;75959.09;5005215;28;20092;-74
2021/06/01 03:16:15;;;;;;;1.00;1.00;;;;;;;-144.31;100.00;75963.09;5012382;28;20418;-74
2021/06/01 03:18:42;;;;;;;1.20;1.10;;;;;;;-144.31;100.00;75953.13;5016922;28;20049;-74
2021/06/01 03:21:08;;;;;;;1.13;1.10;;;;;;;-144.31;100.00;75969.09;5009880;28;20034;-74
2021/06/01 03:23:34;;;;;;;1.10;1.10;;;;;;;-144.31;100.00;75971.09;5019703;28;20120;-74
2021/06/01 03:26:02;;;;;;;1.10;1.10;;;;;;;-144.31;100.00;75971.09;5007963;28;20132;-74
2021/06/01 03:28:30;;;;;;;1.00;1.00;;;;;;;-144.31;100.00;75967.09;5006959;28;20480;-74
2021/06/01 03:30:59;;;;;;;1.05;1.05;;;;;;;-144.31;100.00;75973.09;5007925;28;20083;-74
2021/06/01 03:33:28;;;;;;;1.00;1.00;;;;;;;-144.31;100.00;75975.09;5002975;28;20569;-74
2021/06/01 03:35:54;;;;;;;1.10;1.10;;;;;;;-144.31;100.00;75961.09;5004557;28;20539;-74
2021/06/01 03:38:19;;;;;;;1.00;1.00;;;;;;;-144.31;100.00;75975.09;5015978;28;20117;-74
2021/06/01 03:40:44;;;;;;;1.00;1.00;;;;;;;-144.31;100.00;75969.09;5005847;28;20042;-74
2021/06/01 03:43:10;;;;;;;1.00;1.00;;;;;;;-144.31;100.00;75973.09;5008993;28;20034;-74
2021/06/01 03:45:36;;;;;;;1.10;1.10;;;;;;;-144.31;100.00;75967.09;5010774;28;20034;-74
2021/06/01 03:48:02;;;;;;;1.00;1.00;;;;;;;-144.31;100.00;75969.09;5007242;28;20117;-74
2021/06/01 03:50:27;;;;;;;1.00;1.00;;;;;;;-144.31;100.00;75963.09;5004115;28;20033;-74
2021/06/01 03:52:53;;;;;;;1.10;1.10;;;;;;;-144.31;100.00;75953.13;5004579;28;20080;-74
2021/06/01 03:55:20;;;;;;;1.10;1.10;;;;;;;-144.31;100.00;75947.13;5005297;28;20065;-74
2021/06/01 03:57:49;;;;;;;1.10;1.10;;;;;;;-144.31;100.00;75947.13;5022358;28;20048;-74
2021/06/01 04:00:18;;;;;;;1.00;1.00;;;;;;;-144.31;100.00;75941.13;5007698;28;20057;-74
2021/06/01 04:02:44;;;;;;;1.10;1.10;;;;;;;-144.31;100.00;75937.13;5006204;28;20066;-74
2021/06/01 04:05:10;;;;;;;1.10;1.10;;;;;;;-144.31;100.00;75941.13;5001998;28;20065;-74
2021/06/01 04:07:36;;;;;;;1.10;1.10;;;;;;;-144.31;100.00;75943.13;5023841;28;20500;-74
2021/06/01 04:10:04;;;;;;;;;;;;;;;-144.31;100.00;75943.13;4991336;28;20041;-74
2021/06/01 04:12:30;;;;;;;1.33;1.23;;;;;;;-144.31;100.00;75933.13;5001659;28;19976;-74
2021/06/01 04:14:55;;;;;;;1.10;1.10;;;;;;;-144.31;100.00;75923.16;5011471;28;20030;-74
2021/06/01 04:17:21;;;;;;;1.00;1.00;;;;;;;-144.31;100.00;75903.19;5006573;28;20038;-74
2021/06/01 04:19:49;;;;;;;1.10;1.10;;;;;;;-144.31;100.00;75893.19;5013544;28;20030;-74
2021/06/01 04:22:14;;;;;;;1.17;1.10;;;;;;;-144.31;100.00;75881.22;5006568;28;20044;-74
2021/06/01 04:24:43;;;;;;;1.00;1.00;;;;;;;-144.31;100.00;75875.22;5006521;28;20041;-73
2021/06/01 04:27:09;;;;;;;1.00;1.00;;;;;;;-144.31;100.00;75861.22;5005821;28;20030;-74
2021/06/01 04:29:34;;;;;;;1.00;1.00;;;;;;;-144.31;100.00;75847.25;5007086;28;20087;-74
2021/06/01 04:32:00;;;;;;;1.05;1.05;;;;;;;-144.31;100.00;75833.25;5007972;28;20029;-74
2021/06/01 04:34:28;;;;;;;1.00;1.00;;;;;;;-144.31;100.00;75813.28;5016525;28;20040;-74
2021/06/01 04:36:53;;;;;;;1.35;1.25;;;;;;;-144.31;100.00;75783.34;5004449;28;20033;-74
2021/06/01 04:39:21;;;;;;;1.50;1.40;;;;;;;-144.31;100.00;75773.34;5012066;28;20026;-74
2021/06/01 04:41:46;;;;;;;1.60;1.50;;;;;;;-144.31;100.00;75767.34;5004384;28;20034;-74
2021/06/01 04:44:12;;;;;;;1.40;1.30;;;;;;;-144.31;100.00;75761.34;5006090;28;20033;-74
2021/06/01 04:46:37;;;;;;;1.50;1.40;;;;;;;-144.31;100.00;75739.38;5012002;28;20044;-73
2021/06/01 04:49:03;;;;;;;1.40;1.30;;;;;;;-144.31;100.00;75729.41;5013469;28;20519;-74
2021/06/01 04:51:29;;;;;;;1.10;1.10;;;;;;;-144.31;100.00;75699.44;5003977;28;20491;-74
2021/06/01 04:53:57;;;;;;;1.20;1.20;;;;;;;-144.31;100.00;75669.47;5002467;28;20060;-73
2021/06/01 04:56:23;;;;;;;1.13;1.13;;;;;;;-144.31;100.00;75657.50;5003062;28;20046;-74
2021/06/01 04:58:52;;;;;;;1.10;1.10;;;;;;;-144.31;100.00;75633.53;5002813;28;20038;-74
2021/06/01 05:01:17;;;;;;;1.10;1.10;;;;;;;-144.31;100.00;75617.56;5012983;28;20302;-74
2021/06/01 05:03:43;;;;;;;1.00;1.00;;;;;;;-144.31;100.00;75591.59;5003971;28;20104;-74
2021/06/01 05:06:09;;;;;;;1.10;1.10;;;;;;;-144.31;100.00;75561.63;5000906;28;20042;-74
2021/06/01 05:08:39;;;;;;;1.13;1.10;;;;;;;-144.31;100.00;75527.66;4998208;28;20040;-74
2021/06/01 05:11:05;;;;;;;1.10;1.10;;;;;;;-144.31;100.00;75487.72;4997905;28;20172;-74
2021/06/01 05:13:31;;;;;;;0.98;0.98;;;;;;;-144.31;100.00;75475.75;5000021;28;20038;-74
2021/06/01 05:15:58;;;;;;;0.95;0.95;;;;;;;-144.31;100.00;75457.75;5019523;28;20089;-74
2021/06/01 05:18:24;;;;;;;1.00;1.00;;;;;;;-144.31;100.00;75437.78;5011210;28;20497;-74
2021/06/01 05:20:49;;;;;;;1.00;1.00;;;;;;;-144.31;100.00;75417.81;5003190;28;20041;-71
2021/06/01 05:23:16;;;;;;;0.90;0.90;;;;;;;-144.31;100.00;75401.84;5001550;28;20038;-71
2021/06/01 05:25:42;;;;;;;0.90;0.90;;;;;;;-144.31;100.00;75381.88;5005038;28;20045;-71
2021/06/01 05:28:08;;;;;;;0.90;0.90;;;;;;;-144.31;100.00;75359.91;5006043;28;20037;-71
2021/06/01 05:30:46;;;;;;;1.10;1.10;;;;;;;-144.31;100.00;75317.97;4998252;28;20114;-72
2021/06/01 05:33:16;;;;;;;0.80;0.80;;;;;;;-144.31;100.00;75292.00;5004626;28;20492;-71
2021/06/01 05:35:53;;;;;;;0.90;0.90;;;;;;;-144.31;100.00;75264.03;5020508;28;20038;-72
2021/06/01 05:38:26;;;;;;;0.88;0.88;;;;;;;-144.31;100.00;75228.09;5001561;28;20018;-71
2021/06/01 05:40:53;;;;;;;0.82;0.82;;;;;;;-144.31;100.00;75196.13;5003308;28;20404;-72
2021/06/01 05:43:19;;;;;;;0.90;0.80;;;;;;;-144.31;100.00;75150.19;5001168;28;20037;-71
2021/06/01 05:45:45;;;;;;;0.88;0.88;;;;;;;-144.31;100.00;75110.25;5001237;28;20475;-71
2021/06/01 05:48:12;;;;;;;0.82;0.82;;;;;;;-144.31;100.00;75074.31;5011716;28;20113;-71
2021/06/01 05:50:40;;;;;;;1.23;0.80;;;;;;;-144.31;100.00;75040.34;5002537;28;20248;-71
2021/06/01 05:53:09;;;;;;;0.80;0.80;;;;;;;-144.31;100.00;75020.38;5005535;28;20037;-72
2021/06/01 05:55:36;;;;;;;0.90;0.90;;;;;;;-144.31;100.00;75002.41;5005311;28;20456;-70
2021/06/01 05:58:06;;;;;;;0.80;0.80;;;;;;;-144.31;100.00;74972.47;5008377;28;20056;-72
2021/06/01 06:00:32;;;;;;;0.82;0.82;;;;;;;-144.31;100.00;74932.53;4993381;28;20035;-74
2021/06/01 06:03:02;;;;;;;0.88;0.88;;;;;;;-144.31;100.00;74894.56;4993224;28;20476;-71
2021/06/01 06:05:29;;;;;;;0.70;0.70;;;;;;;-144.31;100.00;74866.63;5003267;28;20029;-69
2021/06/01 06:07:54;;;;;;;0.80;0.80;;;;;;;-144.31;100.00;74838.66;5006513;28;20030;-69
2021/06/01 06:10:20;;;;;;;0.73;0.73;;;;;;;-144.31;100.00;74806.72;5006688;28;20030;-73
2021/06/01 06:12:46;;;;;;;0.65;0.65;;;;;;;-144.31;100.00;74770.75;5005973;28;20077;-69
2021/06/01 06:15:15;;;;;;;0.60;0.60;;;;;;;-144.31;100.00;74738.81;5005327;28;20341;-72
2021/06/01 06:18:03;;;;;;;0.60;0.60;;;;;;;-144.31;100.00;74696.88;5008917;28;20515;-71
2021/06/01 06:20:30;;;;;;;0.70;0.70;;;;;;;-144.31;100.00;74662.94;4994115;28;20129;-69
2021/06/01 06:22:56;;;;;;;0.60;0.60;;;;;;;-144.31;100.00;74630.97;5008782;28;20042;-71
2021/06/01 06:25:22;;;;;;;0.70;0.70;;;;;;;-144.31;100.00;74607.03;5007592;28;20046;-70
2021/06/01 06:27:47;;;;;;;0.55;0.55;;;;;;;-144.31;100.00;74573.06;4998359;28;20034;-69
2021/06/01 06:30:13;;;;;;;0.60;0.60;;;;;;;-144.31;100.00;74543.13;4995762;28;20034;-71
2021/06/01 06:32:38;;;;;;;0.55;0.55;;;;;;;-144.31;100.00;74519.16;4977620;28;20034;-71
2021/06/01 06:35:07;;;;;;;0.60;0.60;;;;;;;-144.31;100.00;74489.22;5000085;28;20092;-71
2021/06/01 06:37:34;;;;;;;0.60;0.60;;;;;;;-144.31;100.00;74465.25;4998484;28;20030;-72
2021/06/01 06:40:00;;;;;;;0.60;0.60;;;;;;;-144.31;100.00;74431.31;5000312;28;20034;-72
2021/06/01 06:42:25;;;;;;;0.40;0.40;;;;;;;-144.31;100.00;74395.38;5001832;28;20046;-73
2021/06/01 06:44:53;;;;;;;0.70;0.70;;;;;;;-144.31;100.00;74359.41;4997523;28;20041;-70
2021/06/01 06:47:24;;;;;;;0.55;0.55;;;;;;;-144.31;100.00;74323.47;5004011;28;20036;-71
2021/06/01 06:49:50;;;;;;;0.40;0.40;;;;;;;-144.31;100.00;74303.50;5003841;28;20026;-72
2021/06/01 06:52:16;;;;;;;0.50;0.50;;;;;;;-144.31;100.00;74277.56;5003980;28;20650;-73
2021/06/01 06:54:46;;;;;;;0.50;0.50;;;;;;;-144.31;100.00;74231.63;5001111;28;20112;-72
2021/06/01 06:57:12;;;;;;;0.40;0.40;;;;;;;-144.31;100.00;74215.66;5002262;28;20531;-73
2021/06/01 06:59:37;;;;;;;0.50;0.50;;;;;;;-144.31;100.00;74189.69;5005390;28;20128;-74
2021/06/01 07:02:04;;;;;;;0.40;0.40;;;;;;;-144.31;100.00;74207.69;5004425;28;20746;-75
2021/06/01 07:04:30;;;;;;;0.40;0.40;;;;;;;-144.31;100.00;74151.78;5020219;28;20120;-74
2021/06/01 07:06:56;;;;;;;0.40;0.40;;;;;;;-144.31;100.00;74117.81;5002605;28;20314;-75
2021/06/01 07:09:22;;;;;;;0.40;0.40;;;;;;;-144.31;100.00;74107.84;5002175;28;20034;-75
2021/06/01 07:11:48;;;;;;;0.73;0.53;;;;;;;-144.31;100.00;74099.84;5004858;28;20029;-75
2021/06/01 07:14:17;;;;;;;0.50;0.50;;;;;;;-144.31;100.00;74085.88;4995943;28;20569;-76
2021/06/01 07:16:43;;;;;;;0.50;0.50;;;;;;;-144.31;100.00;74073.91;4974850;28;20042;-75
2021/06/01 07:19:08;;;;;;;0.45;0.45;;;;;;;-144.31;100.00;74093.88;5012913;28;20030;-74
2021/06/01 07:21:34;;;;;;;0.50;0.50;;;;;;;-144.31;100.00;74049.94;5001741;28;20084;-74
2021/06/01 07:24:00;;;;;;;0.40;0.40;;;;;;;-144.31;100.00;74031.97;4990515;28;20038;-76
2021/06/01 07:26:26;;;;;;;0.43;0.43;;;;;;;-144.31;100.00;73990.03;4986426;28;20113;-76
2021/06/01 07:28:51;;;;;;;0.43;0.43;;;;;;;-144.31;100.00;74016.00;4988059;28;20038;-76
2021/06/01 07:31:17;;;;;;;0.40;0.40;;;;;;;-144.31;100.00;73986.06;4986250;28;20045;-76
2021/06/01 07:33:44;;;;;;;0.55;0.55;;;;;;;-144.31;100.00;73980.06;4986201;28;20125;-76
2021/06/01 07:36:10;;;;;;;;;;;;;;;-144.31;100.00;74029.97;4987733;28;20050;-76
2021/06/01 07:38:36;;;;;;;0.50;0.50;;;;;;;-144.31;100.00;74020.00;4989519;28;20408;-75
2021/06/01 07:41:06;;;;;;;0.40;0.40;;;;;;;-144.31;100.00;74006.03;4999968;28;20752;-75
2021/06/01 07:43:32;;;;;;;0.40;0.40;;;;;;;-144.31;100.00;73994.03;5001855;28;20123;-74
2021/06/01 07:46:03;;;;;;;0.50;0.50;;;;;;;-144.31;100.00;73970.09;5001815;28;20037;-73
2021/06/01 07:48:33;;;;;;;0.40;0.40;;;;;;;-144.31;100.00;73958.09;4998928;28;20073;-75
2021/06/01 07:51:00;;;;;;;0.30;0.30;;;;;;;-144.31;100.00;73954.09;5018185;28;20100;-75
2021/06/01 07:53:26;;;;;;;0.30;0.30;;;;;;;-144.31;100.00;73916.19;4998608;28;20116;-75
2021/06/01 07:55:53;;;;;;;0.30;0.30;;;;;;;-144.31;100.00;73898.22;5004038;28;20412;-75
2021/06/01 07:58:19;;;;;;;0.77;0.50;;;;;;;-144.31;100.00;73846.28;5009617;28;20029;-75
2021/06/01 08:00:47;;;;;;;1.27;1.08;;;;;;;-144.31;100.00;73852.28;5015479;28;20476;-75
2021/06/01 08:03:16;;;;;;;1.20;0.95;;;;;;;-144.31;100.00;73876.25;4991711;28;20069;-74
2021/06/01 08:05:42;;;;;;;1.38;1.10;;;;;;;-144.31;100.00;73876.25;4985307;28;20299;-74
2021/06/01 08:08:10;;;;;;;1.90;1.08;;;;;;;-144.31;100.00;73860.28;4987056;28;20471;-74
2021/06/01 08:10:36;;;;;;;0.50;0.50;;;;;;;-144.31;100.00;73886.22;5003753;28;20041;-75
2021/06/01 08:13:01;;;;;;;1.13;0.90;;;;;;;-144.31;100.00;73836.31;5021553;28;20038;-75
2021/06/01 08:15:27;;;;;;;0.82;0.70;;;;;;;-144.31;100.00;73796.38;5006925;28;20033;-74
2021/06/01 08:17:58;;;;;;;2.35;1.38;;;;;;;-144.31;100.00;73764.44;5021912;28;20034;-75
2021/06/01 08:20:29;;;;;;;1.73;1.10;;;;;;;-144.31;100.00;73784.41;5004713;28;20208;-74
2021/06/01 08:22:56;;;;;;;0.57;0.57;;;;;;;-144.31;100.00;73788.41;4985482;28;20042;-75
2021/06/01 08:25:22;;;;;;;5.40;1.43;;;;;;;-144.31;100.00;73820.34;4990662;28;20761;-74
2021/06/01 08:27:48;;;;;;;2.63;1.75;;;;;;;-144.31;100.00;73740.50;5002934;28;20095;-75
2021/06/01 08:30:14;;;;;;;1.35;0.90;;;;;;;-144.31;100.00;73748.47;5001017;28;20082;-75
2021/06/01 08:32:40;;;;;;;1.50;0.87;;;;;;;-144.31;100.00;73806.38;5003415;28;20060;-74
2021/06/01 08:35:07;;;;;;;1.23;0.93;;;;;;;-144.31;100.00;73846.28;5000072;28;20046;-75
2021/06/01 08:37:32;;;;;;;2.75;1.80;;;;;;;-144.31;100.00;73766.44;4997709;28;20546;-75
2021/06/01 08:39:58;;;;;;;1.00;0.82;;;;;;;-144.31;100.00;73742.47;5005852;28;20045;-75
2021/06/01 08:42:28;;;;;;;1.17;1.00;;;;;;;-144.31;100.00;73688.59;5021451;28;20068;-74
2021/06/01 08:44:54;;;;;;;0.40;0.40;;;;;;;-144.31;100.00;73688.59;4988182;28;20088;-75
2021/06/01 08:47:23;;;;;;;0.68;0.50;;;;;;;-144.31;100.00;73738.50;5004496;28;20468;-74
2021/06/01 08:49:51;;;;;;;0.65;0.65;;;;;;;-144.31;100.00;73674.59;5021743;28;20070;-75
2021/06/01 08:52:17;;;;;;;0.85;0.57;;;;;;;-144.31;100.00;73722.53;5000122;28;20852;-75
2021/06/01 08:54:43;;;;;;;1.75;1.13;;;;;;;-144.31;100.00;73708.53;4985414;28;20049;-76
2021/06/01 08:57:09;;;;;;;0.50;0.50;;;;;;;-144.31;100.00;73740.50;5002171;28;20046;-75
2021/06/01 08:59:40;;;;;;;0.90;0.90;;;;;;;-144.31;100.00;73626.69;4989385;28;20057;-75
2021/06/01 09:02:09;;;;;;;0.85;0.85;;;;;;;-144.31;99.04;73576.78;4985946;28;20034;-75
2021/06/01 09:04:51;;;;;;;0.50;0.50;;;;;;;-144.31;89.71;73618.72;4986961;28;20033;-75
2021/06/01 09:10:16;;;;;;;0.57;0.57;;;;;;;-144.31;78.81;73598.75;4999531;28;20077;-75
2021/06/01 09:21:38;;;;;;;0.57;0.30;;;;;;;-144.31;58.83;73498.94;5004328;28;20038;-74
2021/06/01 09:24:07;;;;;;;0.30;0.30;;;;;;;-144.31;57.26;73504.91;5005903;28;20057;-75
2021/06/01 09:29:22;;;;;;;1.05;0.80;;;;;;;-144.31;54.21;73492.94;5006342;28;20042;-75
2021/06/01 09:32:06;;;;;;;;;;;;;;;-144.31;54.83;73453.00;5019513;28;20528;-74
2021/06/01 09:34:46;;;;;;;0.30;0.30;;;;;;;-144.31;53.43;73413.09;5011740;28;19944;-75
2021/06/01 09:37:27;;;;;;;0.38;0.35;;;;;;;-144.31;55.95;73504.91;5012798;28;20140;-75
2021/06/01 09:40:18;;;;;;;0.30;0.30;;;;;;;-144.31;54.58;73474.97;5007193;28;20688;-75
2021/06/01 09:42:50;;;;;;;1.00;0.40;;;;;;;-144.31;54.05;73488.94;4998576;28;20042;-76
2021/06/01 09:45:17;;;;;;;1.13;0.50;;;;;;;-144.31;53.83;73389.13;5020338;28;20056;-76
2021/06/01 09:47:50;;;;;;;0.28;0.28;;;;;;;-144.31;51.53;73457.00;4999448;28;20042;-76
2021/06/01 09:53:01;;;;;;;0.43;0.32;;;;;;;-144.31;51.84;73494.94;5008581;28;20746;-76
2021/06/01 09:55:36;;;;;;;0.47;0.40;;;;;;;-144.31;53.04;73395.13;4997873;28;20119;-76
2021/06/01 09:58:10;;;;;;;0.30;0.30;;;;;;;-144.31;49.33;73447.03;5007980;28;20053;-76
2021/06/01 10:00:41;;;;;;;0.30;0.30;;;;;;;-144.31;49.06;73453.00;5007632;28;20145;-76
2021/06/01 10:03:16;;;;;;;0.28;0.28;;;;;;;-144.31;49.14;73482.97;5003615;28;20460;-76
2021/06/01 10:05:43;;;;;;;0.30;0.30;;;;;;;-144.31;49.93;73554.81;4997883;28;20053;-76
2021/06/01 10:08:19;;;;;;;1.03;0.40;;;;;;;-144.31;49.00;73437.03;5003398;28;20579;-75
2021/06/01 10:11:08;;;;;;;0.30;0.30;;;;;;;-144.31;46.56;73490.94;5006737;28;20263;-76
2021/06/01 10:13:35;;;;;;;0.40;0.40;;;;;;;-144.31;48.64;73329.25;5007100;28;20048;-75
2021/06/01 10:16:16;;;;;;;0.40;0.40;;;;;;;-144.31;47.19;73415.09;5006987;28;20471;-76
2021/06/01 10:18:44;;;;;;;0.50;0.50;;;;;;;-144.31;48.04;73305.28;5008051;28;20280;-76
2021/06/01 10:21:19;;;;;;;0.32;0.32;;;;;;;-144.31;46.63;73363.19;5009115;28;20064;-76
2021/06/01 10:23:52;;;;;;;0.82;0.52;;;;;;;-144.31;48.75;73349.22;5007138;28;20349;-76
2021/06/01 10:26:18;;;;;;;0.32;0.30;;;;;;;-144.31;46.46;73375.16;5009207;28;20395;-76
2021/06/01 10:28:47;;;;;;;0.93;0.40;;;;;;;-144.31;45.71;73331.25;5008231;28;20499;-76
2021/06/01 10:31:17;;;;;;;0.20;0.20;;;;;;;-144.31;46.51;73317.28;5008633;28;20133;-76
2021/06/01 10:33:47;;;;;;;0.40;0.40;;;;;;;-144.31;46.47;73239.41;4990425;28;20519;-76
2021/06/01 10:50:28;;;;;;;0.20;0.20;;;;;;;-144.31;44.65;73181.53;5004437;28;20447;-76
2021/06/01 10:53:19;;;;;;;0.43;0.30;;;;;;;-144.31;48.97;73359.19;4977702;28;20041;-76
2021/06/01 10:55:51;;;;;;;0.30;0.30;;;;;;;-144.31;47.56;73195.50;5003314;28;20037;-76
2021/06/01 10:58:32;;;;;;;0.20;0.20;;;;;;;-144.31;45.42;73149.59;5006641;28;20483;-76
2021/06/01 11:04:21;;;;;;;0.30;0.30;;;;;;;-144.31;43.47;73103.69;5001992;28;20050;-76
2021/06/01 11:06:52;;;;;;;4.38;1.95;;;;;;;-144.31;42.62;73089.72;5005514;28;20042;-76
2021/06/01 11:09:32;;;;;;;0.50;0.40;;;;;;;-144.31;46.30;73207.47;5007654;28;20420;-76
2021/06/01 11:12:20;;;;;;;0.40;0.40;;;;;;;-144.31;44.61;73043.81;5008061;28;20045;-76
2021/06/01 11:14:55;;;;;;;0.40;0.40;;;;;;;-144.31;44.85;73091.72;4986331;28;21924;-71
2021/06/01 11:17:47;;;;;;;0.30;0.30;;;;;;;-144.31;44.31;73009.88;5019821;28;20116;-70
2021/06/01 11:20:40;;;;;;;0.30;0.30;;;;;;;-144.31;44.30;73089.72;5002990;28;20050;-73
2021/06/01 11:23:36;;;;;;;0.20;0.20;;;;;;;-144.31;46.12;72951.97;5001790;28;20137;-71
2021/06/01 11:33:49;;;;;;;0.57;0.57;;;;;;;-144.31;40.36;72872.16;4999975;28;20053;-73
2021/06/01 11:36:16;;;;;;;0.30;0.30;;;;;;;-144.31;41.55;73111.66;5007515;28;20141;-72
2021/06/01 11:38:51;;;;;;;0.35;0.20;;;;;;;-144.31;40.59;73199.50;5005319;28;20034;-71
2021/06/01 11:44:19;;;;;;;0.20;0.20;;;;;;;-144.31;38.68;73055.78;5002512;28;20030;-71
2021/06/01 11:51:58;;;;;;;0.20;0.20;;;;;;;-144.31;39.12;72946.00;5002674;28;20046;-72
2021/06/01 11:54:24;;;;;;;0.37;0.37;;;;;;;-144.31;36.58;72896.09;5001660;28;20034;-69
2021/06/01 12:04:58;;;;;;;;;;;;;;;;;;;;;
2021/06/01 12:18:39;;;;;;;0.17;0.10;;;;;;;-144.31;38.52;72882.13;5012692;28;20460;-69
2021/06/01 12:21:07;;;;;;;0.13;0.13;;;;;;;-144.31;32.29;72447.03;5000845;28;20080;-72
2021/06/01 12:23:38;;;;;;;0.20;0.20;;;;;;;-144.31;36.04;72674.56;5005669;28;20026;-72
2021/06/01 12:26:16;;;;;;;0.35;0.30;;;;;;;-144.31;34.91;72367.19;5016440;28;20052;-72
2021/06/01 12:31:54;;;;;;;0.10;0.10;;;;;;;-144.31;33.71;72235.47;5005498;28;20245;-70
2021/06/01 12:34:27;;;;;;;0.63;0.28;;;;;;;-144.31;31.14;72121.72;5006986;28;20054;-71
2021/06/01 12:45:56;;;;;;;0.55;0.40;;;;;;;-144.31;32.88;72399.13;5004404;28;20032;-77
2021/06/01 13:08:42;;;;;;;0.43;0.13;;;;;;;-144.31;29.53;71752.56;5006086;28;20030;-71
2021/06/01 13:19:49;;;;;;;0.10;0.10;;;;;;;-144.31;29.65;71716.66;5002651;28;20068;-71
2021/06/01 13:46:43;;;;;;;0.52;0.20;;;;;;;-144.31;29.96;71914.19;4998452;28;20076;-71
2021/06/01 13:49:17;;;;;;;0.60;0.17;;;;;;;-144.31;29.35;71914.19;5002784;28;20022;-71